sensor_id;sensor_type;location;lat;lon;timestamp;pressure;altitude;pressure_sealevel;temperature;humidity
40372;BME280;28564;53.346;-6.554;2023-06-24T00:00:49;101055.49;;;22.62;49.42
40372;BME280;28564;53.346;-6.554;2023-06-24T00:03:16;101059.05;;;22.88;49.40
40372;BME280;28564;53.346;-6.554;2023-06-24T00:05:43;101062.85;;;23.08;49.38
40372;BME280;28564;53.346;-6.554;2023-06-24T00:08:10;101065.47;;;23.08;49.42
40372;BME280;28564;53.346;-6.554;2023-06-24T00:10:37;101071.00;;;23.00;49.50
40372;BME280;28564;53.346;-6.554;2023-06-24T00:13:04;101070.90;;;22.79;49.45
40372;BME280;28564;53.346;-6.554;2023-06-24T00:15:31;101077.01;;;22.81;49.43
40372;BME280;28564;53.346;-6.554;2023-06-24T00:17:58;101077.45;;;23.02;49.39
40372;BME280;28564;53.346;-6.554;2023-06-24T00:20:25;101074.66;;;22.97;49.37
40372;BME280;28564;53.346;-6.554;2023-06-24T00:22:52;101071.39;;;22.94;49.43
40372;BME280;28564;53.346;-6.554;2023-06-24T00:25:19;101072.88;;;22.71;49.43
40372;BME280;28564;53.346;-6.554;2023-06-24T00:27:46;101076.65;;;22.91;49.41
40372;BME280;28564;53.346;-6.554;2023-06-24T00:30:13;101075.27;;;22.61;49.56
40372;BME280;28564;53.346;-6.554;2023-06-24T00:32:41;101074.38;;;22.59;49.57
40372;BME280;28564;53.346;-6.554;2023-06-24T00:35:09;101077.44;;;22.72;49.72
40372;BME280;28564;53.346;-6.554;2023-06-24T00:37:36;101077.77;;;22.70;49.74
40372;BME280;28564;53.346;-6.554;2023-06-24T00:40:05;101073.05;;;22.50;50.05
40372;BME280;28564;53.346;-6.554;2023-06-24T00:42:33;101074.24;;;22.53;49.97
40372;BME280;28564;53.346;-6.554;2023-06-24T00:45:00;101073.23;;;22.49;50.00
40372;BME280;28564;53.346;-6.554;2023-06-24T00:47:27;101071.29;;;22.52;49.87
40372;BME280;28564;53.346;-6.554;2023-06-24T00:49:54;101068.21;;;22.50;49.83
40372;BME280;28564;53.346;-6.554;2023-06-24T00:52:21;101066.05;;;22.51;49.76
40372;BME280;28564;53.346;-6.554;2023-06-24T00:54:48;101065.00;;;22.38;49.92
40372;BME280;28564;53.346;-6.554;2023-06-24T00:57:15;101061.17;;;22.47;49.77
40372;BME280;28564;53.346;-6.554;2023-06-24T00:59:44;101065.13;;;22.47;49.73
40372;BME280;28564;53.346;-6.554;2023-06-24T01:02:13;101063.89;;;22.46;49.77
40372;BME280;28564;53.346;-6.554;2023-06-24T01:04:41;101064.89;;;22.46;49.80
40372;BME280;28564;53.346;-6.554;2023-06-24T01:07:08;101059.10;;;22.44;49.81
40372;BME280;28564;53.346;-6.554;2023-06-24T01:09:36;101057.85;;;22.70;49.84
40372;BME280;28564;53.346;-6.554;2023-06-24T01:12:03;101057.61;;;22.45;49.87
40372;BME280;28564;53.346;-6.554;2023-06-24T01:14:31;101061.43;;;22.45;49.84
40372;BME280;28564;53.346;-6.554;2023-06-24T01:17:02;101061.36;;;22.38;49.97
40372;BME280;28564;53.346;-6.554;2023-06-24T01:19:50;101069.72;;;22.42;49.88
40372;BME280;28564;53.346;-6.554;2023-06-24T01:22:37;101061.35;;;22.41;49.87
40372;BME280;28564;53.346;-6.554;2023-06-24T01:25:21;101045.65;;;22.43;49.81
40372;BME280;28564;53.346;-6.554;2023-06-24T01:28:08;101042.41;;;22.46;49.80
40372;BME280;28564;53.346;-6.554;2023-06-24T01:30:55;101044.17;;;22.48;49.68
40372;BME280;28564;53.346;-6.554;2023-06-24T01:33:35;101050.61;;;22.49;49.58
40372;BME280;28564;53.346;-6.554;2023-06-24T01:36:06;101056.55;;;22.47;49.55
40372;BME280;28564;53.346;-6.554;2023-06-24T01:38:43;101057.16;;;22.46;49.46
40372;BME280;28564;53.346;-6.554;2023-06-24T01:41:18;101058.58;;;22.45;49.46
40372;BME280;28564;53.346;-6.554;2023-06-24T01:43:50;101056.97;;;22.45;49.42
40372;BME280;28564;53.346;-6.554;2023-06-24T01:46:22;101060.89;;;22.47;49.34
40372;BME280;28564;53.346;-6.554;2023-06-24T01:48:50;101069.93;;;22.49;49.32
40372;BME280;28564;53.346;-6.554;2023-06-24T01:51:20;101067.27;;;22.50;49.22
40372;BME280;28564;53.346;-6.554;2023-06-24T01:53:51;101060.29;;;22.51;49.15
40372;BME280;28564;53.346;-6.554;2023-06-24T01:56:21;101056.81;;;22.46;49.15
40372;BME280;28564;53.346;-6.554;2023-06-24T01:58:53;101052.58;;;22.46;49.16
40372;BME280;28564;53.346;-6.554;2023-06-24T02:01:21;101051.17;;;22.46;49.12
40372;BME280;28564;53.346;-6.554;2023-06-24T02:03:50;101050.45;;;22.43;49.12
40372;BME280;28564;53.346;-6.554;2023-06-24T02:06:24;101049.97;;;22.39;49.16
40372;BME280;28564;53.346;-6.554;2023-06-24T02:08:54;101049.15;;;22.32;49.29
40372;BME280;28564;53.346;-6.554;2023-06-24T02:11:23;101051.77;;;22.32;49.36
40372;BME280;28564;53.346;-6.554;2023-06-24T02:13:52;101050.91;;;22.30;49.38
40372;BME280;28564;53.346;-6.554;2023-06-24T02:16:21;101053.00;;;22.30;49.38
40372;BME280;28564;53.346;-6.554;2023-06-24T02:18:49;101055.00;;;22.27;49.45
40372;BME280;28564;53.346;-6.554;2023-06-24T02:21:17;101051.24;;;22.25;49.50
40372;BME280;28564;53.346;-6.554;2023-06-24T02:23:46;101049.86;;;22.26;49.55
40372;BME280;28564;53.346;-6.554;2023-06-24T02:26:15;101043.91;;;22.30;49.53
40372;BME280;28564;53.346;-6.554;2023-06-24T02:28:44;101040.33;;;22.30;49.52
40372;BME280;28564;53.346;-6.554;2023-06-24T02:31:13;101033.73;;;22.31;49.48
40372;BME280;28564;53.346;-6.554;2023-06-24T02:33:41;101027.91;;;22.32;49.44
40372;BME280;28564;53.346;-6.554;2023-06-24T02:36:09;101024.82;;;22.26;49.53
40372;BME280;28564;53.346;-6.554;2023-06-24T02:38:37;101026.54;;;22.21;49.76
40372;BME280;28564;53.346;-6.554;2023-06-24T02:41:04;101023.83;;;22.25;49.84
40372;BME280;28564;53.346;-6.554;2023-06-24T02:43:32;101022.70;;;22.28;49.83
40372;BME280;28564;53.346;-6.554;2023-06-24T02:46:01;101025.27;;;22.33;49.79
40372;BME280;28564;53.346;-6.554;2023-06-24T02:48:30;101023.69;;;22.40;49.73
40372;BME280;28564;53.346;-6.554;2023-06-24T02:51:02;101025.07;;;22.43;49.67
40372;BME280;28564;53.346;-6.554;2023-06-24T02:53:30;101019.33;;;22.52;49.54
40372;BME280;28564;53.346;-6.554;2023-06-24T02:55:59;101011.37;;;22.56;49.37
40372;BME280;28564;53.346;-6.554;2023-06-24T02:58:27;101014.91;;;22.56;49.34
40372;BME280;28564;53.346;-6.554;2023-06-24T03:00:55;101015.93;;;22.52;49.36
40372;BME280;28564;53.346;-6.554;2023-06-24T03:03:22;101019.54;;;22.28;49.47
40372;BME280;28564;53.346;-6.554;2023-06-24T03:05:51;101027.33;;;22.50;49.59
40372;BME280;28564;53.346;-6.554;2023-06-24T03:08:18;101025.66;;;22.52;49.65
40372;BME280;28564;53.346;-6.554;2023-06-24T03:10:45;101032.93;;;22.55;49.75
40372;BME280;28564;53.346;-6.554;2023-06-24T03:13:12;101029.38;;;22.60;49.80
40372;BME280;28564;53.346;-6.554;2023-06-24T03:15:40;101029.44;;;22.64;49.87
40372;BME280;28564;53.346;-6.554;2023-06-24T03:18:07;101027.14;;;22.66;49.81
40372;BME280;28564;53.346;-6.554;2023-06-24T03:20:34;101023.11;;;22.55;50.12
40372;BME280;28564;53.346;-6.554;2023-06-24T03:23:00;101023.09;;;22.55;50.23
40372;BME280;28564;53.346;-6.554;2023-06-24T03:25:27;101025.20;;;22.48;50.52
40372;BME280;28564;53.346;-6.554;2023-06-24T03:27:54;101022.79;;;22.46;50.65
40372;BME280;28564;53.346;-6.554;2023-06-24T03:30:21;101026.06;;;22.41;50.80
40372;BME280;28564;53.346;-6.554;2023-06-24T03:32:48;101024.93;;;22.37;51.01
40372;BME280;28564;53.346;-6.554;2023-06-24T03:35:16;101026.94;;;22.29;51.38
40372;BME280;28564;53.346;-6.554;2023-06-24T03:37:43;101026.12;;;22.24;51.77
40372;BME280;28564;53.346;-6.554;2023-06-24T03:40:12;101027.21;;;22.24;51.81
40372;BME280;28564;53.346;-6.554;2023-06-24T03:42:40;101025.77;;;22.17;52.11
40372;BME280;28564;53.346;-6.554;2023-06-24T03:45:07;101024.19;;;22.17;52.13
40372;BME280;28564;53.346;-6.554;2023-06-24T03:47:35;101025.00;;;22.18;52.07
40372;BME280;28564;53.346;-6.554;2023-06-24T03:50:02;101022.23;;;22.17;52.18
40372;BME280;28564;53.346;-6.554;2023-06-24T03:52:29;101026.54;;;22.14;52.33
40372;BME280;28564;53.346;-6.554;2023-06-24T03:54:57;101024.76;;;22.40;52.33
40372;BME280;28564;53.346;-6.554;2023-06-24T03:57:24;101029.70;;;22.11;52.45
40372;BME280;28564;53.346;-6.554;2023-06-24T03:59:52;101030.30;;;22.17;52.72
40372;BME280;28564;53.346;-6.554;2023-06-24T04:02:19;101029.89;;;22.52;52.77
40372;BME280;28564;53.346;-6.554;2023-06-24T04:04:46;101034.50;;;22.36;52.63
40372;BME280;28564;53.346;-6.554;2023-06-24T04:07:13;101032.35;;;22.34;52.63
40372;BME280;28564;53.346;-6.554;2023-06-24T04:09:40;101035.35;;;22.17;52.42
40372;BME280;28564;53.346;-6.554;2023-06-24T04:12:08;101038.57;;;22.67;52.50
40372;BME280;28564;53.346;-6.554;2023-06-24T04:14:35;101043.25;;;22.21;52.74
40372;BME280;28564;53.346;-6.554;2023-06-24T04:17:02;101047.87;;;22.48;52.83
40372;BME280;28564;53.346;-6.554;2023-06-24T04:19:29;101050.28;;;22.57;52.76
40372;BME280;28564;53.346;-6.554;2023-06-24T04:21:56;101054.39;;;22.66;52.63
40372;BME280;28564;53.346;-6.554;2023-06-24T04:24:23;101056.10;;;22.75;52.47
40372;BME280;28564;53.346;-6.554;2023-06-24T04:26:50;101053.80;;;22.79;52.28
40372;BME280;28564;53.346;-6.554;2023-06-24T04:29:18;101057.55;;;22.83;52.26
40372;BME280;28564;53.346;-6.554;2023-06-24T04:31:45;101063.57;;;22.90;52.28
40372;BME280;28564;53.346;-6.554;2023-06-24T04:34:12;101061.51;;;22.73;52.25
40372;BME280;28564;53.346;-6.554;2023-06-24T04:36:39;101063.28;;;23.02;52.10
40372;BME280;28564;53.346;-6.554;2023-06-24T04:39:06;101067.56;;;22.86;52.05
40372;BME280;28564;53.346;-6.554;2023-06-24T04:41:33;101062.47;;;22.93;52.01
40372;BME280;28564;53.346;-6.554;2023-06-24T04:44:00;101062.89;;;23.22;51.91
40372;BME280;28564;53.346;-6.554;2023-06-24T04:46:27;101058.74;;;23.02;51.91
40372;BME280;28564;53.346;-6.554;2023-06-24T04:48:54;101065.60;;;23.07;51.90
40372;BME280;28564;53.346;-6.554;2023-06-24T04:51:21;101064.83;;;23.11;51.85
40372;BME280;28564;53.346;-6.554;2023-06-24T04:53:48;101055.98;;;23.13;51.62
40372;BME280;28564;53.346;-6.554;2023-06-24T04:56:15;101053.99;;;23.02;51.65
40372;BME280;28564;53.346;-6.554;2023-06-24T04:58:43;101054.96;;;23.16;51.75
40372;BME280;28564;53.346;-6.554;2023-06-24T05:01:10;101058.21;;;22.86;51.89
40372;BME280;28564;53.346;-6.554;2023-06-24T05:03:37;101055.76;;;23.04;52.04
40372;BME280;28564;53.346;-6.554;2023-06-24T05:06:04;101055.55;;;22.71;52.40
40372;BME280;28564;53.346;-6.554;2023-06-24T05:08:31;101052.68;;;22.92;52.42
40372;BME280;28564;53.346;-6.554;2023-06-24T05:10:58;101059.96;;;22.68;52.48
40372;BME280;28564;53.346;-6.554;2023-06-24T05:13:27;101056.51;;;22.65;52.56
40372;BME280;28564;53.346;-6.554;2023-06-24T05:15:54;101054.66;;;22.65;52.59
40372;BME280;28564;53.346;-6.554;2023-06-24T05:18:22;101055.64;;;22.64;52.67
40372;BME280;28564;53.346;-6.554;2023-06-24T05:20:49;101051.45;;;22.85;52.66
40372;BME280;28564;53.346;-6.554;2023-06-24T05:23:16;101054.43;;;22.64;52.62
40372;BME280;28564;53.346;-6.554;2023-06-24T05:25:43;101058.74;;;22.64;52.55
40372;BME280;28564;53.346;-6.554;2023-06-24T05:28:10;101056.88;;;22.83;52.50
40372;BME280;28564;53.346;-6.554;2023-06-24T05:30:37;101057.90;;;22.79;52.47
40372;BME280;28564;53.346;-6.554;2023-06-24T05:33:05;101058.90;;;22.88;52.32
40372;BME280;28564;53.346;-6.554;2023-06-24T05:35:32;101062.14;;;22.68;52.23
40372;BME280;28564;53.346;-6.554;2023-06-24T05:37:59;101065.23;;;22.73;52.05
40372;BME280;28564;53.346;-6.554;2023-06-24T05:40:27;101065.41;;;22.98;51.98
40372;BME280;28564;53.346;-6.554;2023-06-24T05:42:54;101070.44;;;22.71;52.00
40372;BME280;28564;53.346;-6.554;2023-06-24T05:45:21;101068.91;;;22.98;51.86
40372;BME280;28564;53.346;-6.554;2023-06-24T05:47:48;101069.12;;;22.80;51.81
40372;BME280;28564;53.346;-6.554;2023-06-24T05:50:15;101074.10;;;22.85;51.77
40372;BME280;28564;53.346;-6.554;2023-06-24T05:52:42;101077.29;;;22.88;51.75
40372;BME280;28564;53.346;-6.554;2023-06-24T05:55:09;101075.29;;;23.10;51.59
40372;BME280;28564;53.346;-6.554;2023-06-24T05:57:36;101077.51;;;23.17;51.53
40372;BME280;28564;53.346;-6.554;2023-06-24T06:00:04;101073.57;;;23.03;51.45
40372;BME280;28564;53.346;-6.554;2023-06-24T06:02:32;101075.35;;;22.88;51.35
40372;BME280;28564;53.346;-6.554;2023-06-24T06:04:59;101074.87;;;23.26;51.13
40372;BME280;28564;53.346;-6.554;2023-06-24T06:07:26;101077.06;;;23.20;51.06
40372;BME280;28564;53.346;-6.554;2023-06-24T06:09:54;101074.36;;;23.38;50.49
40372;BME280;28564;53.346;-6.554;2023-06-24T06:12:21;101075.79;;;23.55;50.25
40372;BME280;28564;53.346;-6.554;2023-06-24T06:14:48;101077.22;;;23.68;50.05
40372;BME280;28564;53.346;-6.554;2023-06-24T06:17:15;101075.34;;;23.74;49.61
40372;BME280;28564;53.346;-6.554;2023-06-24T06:19:41;101074.73;;;23.72;49.36
40372;BME280;28564;53.346;-6.554;2023-06-24T06:22:08;101074.70;;;23.56;49.35
40372;BME280;28564;53.346;-6.554;2023-06-24T06:24:35;101070.51;;;23.46;49.45
40372;BME280;28564;53.346;-6.554;2023-06-24T06:27:03;101063.69;;;23.45;49.57
40372;BME280;28564;53.346;-6.554;2023-06-24T06:29:30;101066.19;;;23.41;49.54
40372;BME280;28564;53.346;-6.554;2023-06-24T06:31:57;101069.85;;;23.41;49.61
40372;BME280;28564;53.346;-6.554;2023-06-24T06:34:24;101071.37;;;23.44;49.45
40372;BME280;28564;53.346;-6.554;2023-06-24T06:36:51;101072.31;;;23.52;49.36
40372;BME280;28564;53.346;-6.554;2023-06-24T06:39:18;101071.03;;;23.87;49.26
40372;BME280;28564;53.346;-6.554;2023-06-24T06:41:45;101073.27;;;23.38;49.32
40372;BME280;28564;53.346;-6.554;2023-06-24T06:44:12;101068.57;;;23.36;49.14
40372;BME280;28564;53.346;-6.554;2023-06-24T06:46:40;101070.10;;;23.60;49.24
40372;BME280;28564;53.346;-6.554;2023-06-24T06:49:07;101078.29;;;23.63;49.01
40372;BME280;28564;53.346;-6.554;2023-06-24T06:51:34;101072.24;;;23.64;48.95
40372;BME280;28564;53.346;-6.554;2023-06-24T06:54:00;101075.49;;;23.52;48.77
40372;BME280;28564;53.346;-6.554;2023-06-24T06:56:28;101080.27;;;23.88;48.63
40372;BME280;28564;53.346;-6.554;2023-06-24T06:58:55;101083.72;;;23.98;48.55
40372;BME280;28564;53.346;-6.554;2023-06-24T07:01:22;101081.90;;;23.72;48.04
40372;BME280;28564;53.346;-6.554;2023-06-24T07:03:50;101081.38;;;23.70;47.87
40372;BME280;28564;53.346;-6.554;2023-06-24T07:06:18;101084.38;;;23.83;47.99
40372;BME280;28564;53.346;-6.554;2023-06-24T07:08:50;101089.75;;;23.87;47.86
40372;BME280;28564;53.346;-6.554;2023-06-24T07:11:17;101097.96;;;23.92;47.83
40372;BME280;28564;53.346;-6.554;2023-06-24T07:13:44;101096.85;;;23.57;48.00
40372;BME280;28564;53.346;-6.554;2023-06-24T07:16:11;101105.89;;;24.07;47.47
40372;BME280;28564;53.346;-6.554;2023-06-24T07:18:39;101107.96;;;23.75;47.17
40372;BME280;28564;53.346;-6.554;2023-06-24T07:21:06;101110.96;;;23.80;47.20
40372;BME280;28564;53.346;-6.554;2023-06-24T07:23:33;101112.59;;;24.04;47.01
40372;BME280;28564;53.346;-6.554;2023-06-24T07:25:59;101121.07;;;24.07;47.11
40372;BME280;28564;53.346;-6.554;2023-06-24T07:28:27;101121.47;;;23.68;47.04
40372;BME280;28564;53.346;-6.554;2023-06-24T07:30:54;101123.30;;;23.67;47.03
40372;BME280;28564;53.346;-6.554;2023-06-24T07:33:21;101128.29;;;23.70;46.90
40372;BME280;28564;53.346;-6.554;2023-06-24T07:35:48;101136.72;;;23.82;46.93
40372;BME280;28564;53.346;-6.554;2023-06-24T07:38:15;101133.91;;;23.86;46.86
40372;BME280;28564;53.346;-6.554;2023-06-24T07:40:42;101138.32;;;24.39;46.78
40372;BME280;28564;53.346;-6.554;2023-06-24T07:43:09;101147.11;;;23.78;46.75
40372;BME280;28564;53.346;-6.554;2023-06-24T07:45:36;101153.16;;;24.19;46.45
40372;BME280;28564;53.346;-6.554;2023-06-24T07:48:04;101150.99;;;24.06;46.25
40372;BME280;28564;53.346;-6.554;2023-06-24T07:50:31;101156.94;;;24.15;46.04
40372;BME280;28564;53.346;-6.554;2023-06-24T07:52:58;101155.41;;;24.36;46.03
40372;BME280;28564;53.346;-6.554;2023-06-24T07:55:25;101160.38;;;24.40;45.58
40372;BME280;28564;53.346;-6.554;2023-06-24T07:57:52;101171.34;;;24.57;45.37
40372;BME280;28564;53.346;-6.554;2023-06-24T08:00:19;101167.48;;;24.81;44.87
40372;BME280;28564;53.346;-6.554;2023-06-24T08:02:46;101168.51;;;24.96;44.78
40372;BME280;28564;53.346;-6.554;2023-06-24T08:05:13;101169.41;;;24.99;44.06
40372;BME280;28564;53.346;-6.554;2023-06-24T08:07:40;101176.09;;;25.32;43.52
40372;BME280;28564;53.346;-6.554;2023-06-24T08:10:08;101179.16;;;25.71;43.09
40372;BME280;28564;53.346;-6.554;2023-06-24T08:12:35;101184.02;;;25.64;42.56
40372;BME280;28564;53.346;-6.554;2023-06-24T08:15:03;101180.26;;;25.59;42.26
40372;BME280;28564;53.346;-6.554;2023-06-24T08:17:30;101179.79;;;25.94;42.33
40372;BME280;28564;53.346;-6.554;2023-06-24T08:19:57;101184.90;;;25.79;42.12
40372;BME280;28564;53.346;-6.554;2023-06-24T08:22:24;101187.09;;;26.13;42.31
40372;BME280;28564;53.346;-6.554;2023-06-24T08:24:51;101185.56;;;26.06;42.22
40372;BME280;28564;53.346;-6.554;2023-06-24T08:27:18;101187.18;;;25.86;42.01
40372;BME280;28564;53.346;-6.554;2023-06-24T08:29:45;101187.79;;;25.97;42.01
40372;BME280;28564;53.346;-6.554;2023-06-24T08:32:11;101184.60;;;26.26;41.69
40372;BME280;28564;53.346;-6.554;2023-06-24T08:34:39;101187.65;;;26.07;41.59
40372;BME280;28564;53.346;-6.554;2023-06-24T08:37:06;101185.42;;;26.20;41.65
40372;BME280;28564;53.346;-6.554;2023-06-24T08:39:33;101185.30;;;26.76;40.82
40372;BME280;28564;53.346;-6.554;2023-06-24T08:42:00;101183.30;;;26.38;41.09
40372;BME280;28564;53.346;-6.554;2023-06-24T08:44:28;101180.60;;;26.43;41.24
40372;BME280;28564;53.346;-6.554;2023-06-24T08:46:55;101181.47;;;26.42;41.13
40372;BME280;28564;53.346;-6.554;2023-06-24T08:49:28;101183.70;;;26.72;40.95
40372;BME280;28564;53.346;-6.554;2023-06-24T08:52:00;101186.27;;;26.48;40.84
40372;BME280;28564;53.346;-6.554;2023-06-24T08:54:30;101184.19;;;26.78;40.60
40372;BME280;28564;53.346;-6.554;2023-06-24T08:57:01;101188.74;;;26.57;40.59
40372;BME280;28564;53.346;-6.554;2023-06-24T08:59:29;101183.02;;;26.57;40.47
40372;BME280;28564;53.346;-6.554;2023-06-24T09:01:56;101186.52;;;26.53;40.48
40372;BME280;28564;53.346;-6.554;2023-06-24T09:04:24;101184.31;;;26.68;40.55
40372;BME280;28564;53.346;-6.554;2023-06-24T09:06:51;101184.26;;;26.89;40.50
40372;BME280;28564;53.346;-6.554;2023-06-24T09:09:19;101181.89;;;27.00;39.82
40372;BME280;28564;53.346;-6.554;2023-06-24T09:11:52;101178.21;;;26.90;39.72
40372;BME280;28564;53.346;-6.554;2023-06-24T09:14:19;101178.26;;;27.31;39.09
40372;BME280;28564;53.346;-6.554;2023-06-24T09:16:51;101173.06;;;26.95;38.77
40372;BME280;28564;53.346;-6.554;2023-06-24T09:19:21;101180.89;;;27.41;38.69
40372;BME280;28564;53.346;-6.554;2023-06-24T09:21:48;101179.85;;;27.48;38.42
40372;BME280;28564;53.346;-6.554;2023-06-24T09:24:16;101176.74;;;27.43;38.14
40372;BME280;28564;53.346;-6.554;2023-06-24T09:26:43;101176.83;;;27.11;38.22
40372;BME280;28564;53.346;-6.554;2023-06-24T09:29:10;101179.75;;;27.41;38.14
40372;BME280;28564;53.346;-6.554;2023-06-24T09:31:47;101174.76;;;27.46;38.14
40372;BME280;28564;53.346;-6.554;2023-06-24T09:34:15;101172.75;;;27.28;38.12
40372;BME280;28564;53.346;-6.554;2023-06-24T09:36:43;101171.72;;;27.52;38.18
40372;BME280;28564;53.346;-6.554;2023-06-24T09:39:11;101176.97;;;27.74;38.11
40372;BME280;28564;53.346;-6.554;2023-06-24T09:41:40;101177.08;;;27.90;37.54
40372;BME280;28564;53.346;-6.554;2023-06-24T09:44:08;101182.26;;;28.18;36.99
40372;BME280;28564;53.346;-6.554;2023-06-24T09:46:38;101185.43;;;27.88;37.04
40372;BME280;28564;53.346;-6.554;2023-06-24T09:49:05;101188.01;;;27.83;37.17
40372;BME280;28564;53.346;-6.554;2023-06-24T09:51:37;101188.01;;;27.86;37.15
40372;BME280;28564;53.346;-6.554;2023-06-24T09:54:06;101183.12;;;27.97;37.28
40372;BME280;28564;53.346;-6.554;2023-06-24T09:56:35;101177.30;;;28.14;36.82
40372;BME280;28564;53.346;-6.554;2023-06-24T09:59:04;101173.32;;;28.06;36.59
40372;BME280;28564;53.346;-6.554;2023-06-24T10:01:32;101175.53;;;28.41;36.49
40372;BME280;28564;53.346;-6.554;2023-06-24T10:04:02;101173.57;;;27.77;35.69
40372;BME280;28564;53.346;-6.554;2023-06-24T10:06:31;101178.09;;;28.32;35.87
40372;BME280;28564;53.346;-6.554;2023-06-24T10:08:59;101173.53;;;28.23;35.64
40372;BME280;28564;53.346;-6.554;2023-06-24T10:11:26;101174.85;;;28.26;35.96
40372;BME280;28564;53.346;-6.554;2023-06-24T10:13:54;101174.83;;;27.98;36.17
40372;BME280;28564;53.346;-6.554;2023-06-24T10:16:21;101182.46;;;28.06;36.17
40372;BME280;28564;53.346;-6.554;2023-06-24T10:18:49;101173.48;;;27.93;36.32
40372;BME280;28564;53.346;-6.554;2023-06-24T10:21:17;101173.48;;;27.69;36.93
40372;BME280;28564;53.346;-6.554;2023-06-24T10:23:52;101168.82;;;27.72;36.91
40372;BME280;28564;53.346;-6.554;2023-06-24T10:26:25;101166.01;;;27.72;36.18
40372;BME280;28564;53.346;-6.554;2023-06-24T10:29:09;101169.55;;;27.83;36.65
40372;BME280;28564;53.346;-6.554;2023-06-24T10:31:51;101169.58;;;28.09;36.59
40372;BME280;28564;53.346;-6.554;2023-06-24T10:34:31;101165.50;;;28.01;36.62
40372;BME280;28564;53.346;-6.554;2023-06-24T10:37:00;101159.52;;;28.10;36.70
40372;BME280;28564;53.346;-6.554;2023-06-24T10:40:01;101158.07;;;27.94;36.58
40372;BME280;28564;53.346;-6.554;2023-06-24T10:42:32;101155.19;;;28.14;36.52
40372;BME280;28564;53.346;-6.554;2023-06-24T10:45:02;101152.45;;;28.49;36.40
40372;BME280;28564;53.346;-6.554;2023-06-24T10:47:41;101155.87;;;28.42;36.02
40372;BME280;28564;53.346;-6.554;2023-06-24T10:50:10;101158.22;;;28.38;36.23
40372;BME280;28564;53.346;-6.554;2023-06-24T10:52:38;101159.99;;;28.65;36.32
40372;BME280;28564;53.346;-6.554;2023-06-24T10:55:07;101158.99;;;28.58;36.48
40372;BME280;28564;53.346;-6.554;2023-06-24T10:57:34;101158.41;;;28.63;36.33
40372;BME280;28564;53.346;-6.554;2023-06-24T11:00:04;101152.68;;;28.46;36.33
40372;BME280;28564;53.346;-6.554;2023-06-24T11:02:31;101142.86;;;28.49;36.33
40372;BME280;28564;53.346;-6.554;2023-06-24T11:05:01;101148.40;;;28.37;36.34
40372;BME280;28564;53.346;-6.554;2023-06-24T11:07:30;101146.50;;;28.64;36.14
40372;BME280;28564;53.346;-6.554;2023-06-24T11:10:00;101150.67;;;29.09;36.04
40372;BME280;28564;53.346;-6.554;2023-06-24T11:12:30;101146.61;;;28.81;35.57
40372;BME280;28564;53.346;-6.554;2023-06-24T11:14:58;101145.62;;;28.99;35.48
40372;BME280;28564;53.346;-6.554;2023-06-24T11:17:26;101140.74;;;29.27;34.56
40372;BME280;28564;53.346;-6.554;2023-06-24T11:19:53;101147.76;;;29.04;34.74
40372;BME280;28564;53.346;-6.554;2023-06-24T11:22:21;101133.28;;;28.70;34.93
40372;BME280;28564;53.346;-6.554;2023-06-24T11:24:48;101131.65;;;28.66;35.54
40372;BME280;28564;53.346;-6.554;2023-06-24T11:27:16;101130.44;;;28.45;35.78
40372;BME280;28564;53.346;-6.554;2023-06-24T11:29:44;101136.21;;;29.17;35.89
40372;BME280;28564;53.346;-6.554;2023-06-24T11:32:12;101125.98;;;28.75;35.79
40372;BME280;28564;53.346;-6.554;2023-06-24T11:34:39;101123.42;;;28.43;35.76
40372;BME280;28564;53.346;-6.554;2023-06-24T11:37:11;101119.00;;;28.50;35.94
40372;BME280;28564;53.346;-6.554;2023-06-24T11:39:38;101118.32;;;28.82;35.79
40372;BME280;28564;53.346;-6.554;2023-06-24T11:42:07;101121.51;;;28.75;35.90
40372;BME280;28564;53.346;-6.554;2023-06-24T11:44:35;101124.65;;;28.87;35.84
40372;BME280;28564;53.346;-6.554;2023-06-24T11:47:04;101129.27;;;28.88;35.41
40372;BME280;28564;53.346;-6.554;2023-06-24T11:49:50;101129.11;;;28.90;35.44
40372;BME280;28564;53.346;-6.554;2023-06-24T11:52:18;101134.95;;;28.74;35.02
40372;BME280;28564;53.346;-6.554;2023-06-24T11:54:45;101133.23;;;28.95;34.83
40372;BME280;28564;53.346;-6.554;2023-06-24T11:57:12;101133.74;;;29.11;34.41
40372;BME280;28564;53.346;-6.554;2023-06-24T11:59:39;101134.67;;;29.13;34.48
40372;BME280;28564;53.346;-6.554;2023-06-24T12:02:06;101137.62;;;29.37;34.44
40372;BME280;28564;53.346;-6.554;2023-06-24T12:04:34;101136.18;;;29.48;34.05
40372;BME280;28564;53.346;-6.554;2023-06-24T12:07:01;101134.66;;;30.09;33.60
40372;BME280;28564;53.346;-6.554;2023-06-24T12:09:29;101134.25;;;29.67;33.65
40372;BME280;28564;53.346;-6.554;2023-06-24T12:11:56;101123.90;;;29.92;33.91
40372;BME280;28564;53.346;-6.554;2023-06-24T12:14:23;101120.71;;;30.16;33.38
40372;BME280;28564;53.346;-6.554;2023-06-24T12:16:50;101116.40;;;30.06;33.46
40372;BME280;28564;53.346;-6.554;2023-06-24T12:19:18;101111.24;;;29.90;33.55
40372;BME280;28564;53.346;-6.554;2023-06-24T12:21:45;101113.23;;;29.89;33.68
40372;BME280;28564;53.346;-6.554;2023-06-24T12:24:16;101111.28;;;30.23;33.50
40372;BME280;28564;53.346;-6.554;2023-06-24T12:26:44;101113.62;;;30.31;33.90
40372;BME280;28564;53.346;-6.554;2023-06-24T12:29:12;101108.68;;;30.05;33.07
40372;BME280;28564;53.346;-6.554;2023-06-24T12:31:39;101112.99;;;30.54;33.62
40372;BME280;28564;53.346;-6.554;2023-06-24T12:34:07;101107.48;;;30.40;33.76
40372;BME280;28564;53.346;-6.554;2023-06-24T12:36:34;101106.74;;;30.43;33.65
40372;BME280;28564;53.346;-6.554;2023-06-24T12:39:02;101111.99;;;30.56;33.78
40372;BME280;28564;53.346;-6.554;2023-06-24T12:41:29;101113.79;;;30.77;33.81
40372;BME280;28564;53.346;-6.554;2023-06-24T12:43:57;101114.28;;;30.72;33.30
40372;BME280;28564;53.346;-6.554;2023-06-24T12:46:24;101113.80;;;30.88;32.44